createdAt,value
2017-06-05T00:00:16.189Z,2.40
2017-06-05T00:02:44.620Z,2.50
2017-06-05T00:05:13.156Z,2.53
2017-06-05T00:07:41.605Z,2.03
2017-06-05T00:10:10.788Z,2.00
2017-06-05T00:12:39.196Z,1.70
2017-06-05T00:15:08.405Z,1.90
2017-06-05T00:17:36.841Z,1.90
2017-06-05T00:20:05.252Z,2.10
2017-06-05T00:22:34.462Z,2.00
2017-06-05T00:25:02.892Z,1.70
2017-06-05T00:27:31.290Z,1.70
2017-06-05T00:30:00.489Z,4.70
2017-06-05T00:32:29.747Z,11.63
2017-06-05T00:34:58.166Z,8.80
2017-06-05T00:37:27.365Z,4.40
2017-06-05T00:39:56.549Z,3.00
2017-06-05T00:42:25.058Z,4.23
2017-06-05T00:44:53.524Z,5.40
2017-06-05T00:47:22.708Z,5.67
2017-06-05T00:49:51.127Z,5.40
2017-06-05T00:52:19.581Z,3.90
2017-06-05T00:54:48.757Z,3.50
2017-06-05T00:57:17.202Z,3.70
2017-06-05T00:59:45.636Z,5.23
2017-06-05T01:02:14.833Z,5.40
2017-06-05T01:04:44.013Z,4.67
2017-06-05T01:07:12.539Z,7.17
2017-06-05T01:09:40.955Z,6.20
2017-06-05T01:12:09.378Z,6.33
2017-06-05T01:14:37.849Z,6.30
2017-06-05T01:17:07.044Z,5.53
2017-06-05T01:19:36.246Z,4.50
2017-06-05T01:22:05.481Z,4.87
2017-06-05T01:24:33.897Z,4.97
2017-06-05T01:27:02.320Z,5.37
2017-06-05T01:29:30.750Z,6.67
2017-06-05T01:31:58.836Z,7.00
2017-06-05T01:34:28.069Z,7.60
2017-06-05T01:36:56.509Z,8.43
2017-06-05T01:39:24.922Z,7.83
2017-06-05T01:41:53.025Z,6.93
2017-06-05T01:44:21.498Z,5.60
2017-06-05T01:46:49.903Z,5.50
2017-06-05T01:49:18.018Z,4.43
2017-06-05T01:51:47.161Z,5.70
2017-06-05T01:54:15.597Z,5.57
2017-06-05T01:56:44.014Z,5.50
2017-06-05T01:59:12.470Z,4.40
2017-06-05T02:01:40.895Z,4.67
2017-06-05T02:04:09.367Z,3.83
2017-06-05T02:06:38.637Z,4.17
2017-06-05T02:09:07.062Z,4.33
2017-06-05T02:11:35.477Z,4.03
2017-06-05T02:14:03.925Z,4.00
2017-06-05T02:16:33.125Z,3.43
2017-06-05T02:19:02.298Z,3.30
2017-06-05T02:21:30.764Z,3.70
2017-06-05T02:23:59.197Z,3.40
2017-06-05T02:26:27.610Z,3.40
2017-06-05T02:28:56.058Z,3.63
2017-06-05T02:31:25.379Z,3.60
2017-06-05T02:33:53.794Z,3.53
2017-06-05T02:36:22.236Z,3.47
2017-06-05T02:38:50.695Z,3.40
2017-06-05T02:41:19.132Z,3.87
2017-06-05T02:43:47.578Z,4.17
2017-06-05T02:46:16.069Z,3.80
2017-06-05T02:48:44.469Z,3.30
2017-06-05T02:51:12.900Z,3.40
2017-06-05T02:53:41.316Z,4.10
2017-06-05T02:56:09.732Z,3.30
2017-06-05T02:58:38.932Z,3.77
2017-06-05T03:01:08.037Z,4.20
2017-06-05T03:03:36.455Z,3.80
2017-06-05T03:06:05.000Z,3.90
2017-06-05T03:08:33.488Z,3.67
2017-06-05T03:11:01.896Z,2.83
2017-06-05T03:13:30.355Z,4.03
2017-06-05T03:15:58.816Z,4.10
2017-06-05T03:18:27.309Z,3.97
2017-06-05T03:20:57.223Z,4.40
2017-06-05T03:23:25.642Z,4.50
2017-06-05T03:25:54.049Z,4.37
2017-06-05T03:28:22.909Z,4.27
2017-06-05T03:30:51.337Z,3.97
2017-06-05T03:33:19.752Z,4.33
2017-06-05T03:35:48.200Z,5.07
2017-06-05T03:38:16.614Z,4.53
2017-06-05T03:40:45.035Z,5.20
2017-06-05T03:43:14.246Z,5.33
2017-06-05T03:45:42.646Z,5.37
2017-06-05T03:48:11.064Z,5.30
2017-06-05T03:50:39.500Z,6.23
2017-06-05T03:53:07.930Z,5.47
2017-06-05T03:55:36.444Z,5.23
2017-06-05T03:58:04.875Z,5.73
2017-06-05T04:00:33.279Z,5.33
2017-06-05T04:03:02.461Z,5.20
2017-06-05T04:05:30.910Z,5.33
2017-06-05T04:07:59.452Z,4.43
2017-06-05T04:10:28.636Z,4.80
2017-06-05T04:12:57.835Z,4.47
2017-06-05T04:15:27.015Z,4.70
2017-06-05T04:17:55.463Z,5.57
2017-06-05T04:20:23.877Z,6.10
2017-06-05T04:22:52.282Z,5.40
2017-06-05T04:25:20.697Z,6.50
2017-06-05T04:27:49.130Z,6.00
2017-06-05T04:30:18.337Z,5.83
2017-06-05T04:32:46.750Z,5.57
2017-06-05T04:35:15.190Z,6.17
2017-06-05T04:37:44.377Z,5.57
2017-06-05T04:40:13.567Z,6.10
2017-06-05T04:42:42.005Z,5.93
2017-06-05T04:45:11.126Z,6.47
2017-06-05T04:47:39.551Z,6.03
2017-06-05T04:50:08.000Z,5.30
2017-06-05T04:52:37.217Z,5.57
2017-06-05T04:55:05.642Z,5.27
2017-06-05T04:57:34.084Z,5.53
2017-06-05T05:00:02.505Z,5.73
2017-06-05T05:02:30.924Z,5.43
2017-06-05T05:05:00.125Z,5.17
2017-06-05T05:07:29.329Z,5.60
2017-06-05T05:09:57.736Z,5.60
2017-06-05T05:12:26.188Z,5.60
2017-06-05T05:14:54.608Z,5.47
2017-06-05T05:17:23.045Z,5.87
2017-06-05T05:19:51.477Z,5.63
2017-06-05T05:22:19.885Z,5.90
2017-06-05T05:24:49.063Z,5.83
2017-06-05T05:27:17.504Z,5.90
2017-06-05T05:29:45.912Z,5.43
2017-06-05T05:32:16.579Z,6.10
2017-06-05T05:34:45.684Z,5.67
2017-06-05T05:37:14.097Z,5.63
2017-06-05T05:39:42.527Z,5.20
2017-06-05T05:42:11.541Z,6.37
2017-06-05T05:44:40.721Z,5.50
2017-06-05T05:47:09.901Z,5.60
2017-06-05T05:49:39.126Z,6.07
2017-06-05T05:52:07.548Z,6.13
2017-06-05T05:54:35.947Z,5.70
2017-06-05T05:57:04.399Z,5.60
2017-06-05T05:59:32.839Z,5.10
2017-06-05T06:02:01.261Z,4.90
2017-06-05T06:04:29.700Z,5.37
2017-06-05T06:06:58.113Z,5.40
2017-06-05T06:09:26.544Z,5.73
2017-06-05T06:11:55.748Z,5.47
2017-06-05T06:14:24.168Z,5.93
2017-06-05T06:16:52.571Z,5.47
2017-06-05T06:19:20.999Z,5.43
2017-06-05T06:21:49.425Z,6.53
2017-06-05T06:24:17.853Z,4.80
2017-06-05T06:26:46.300Z,5.70
2017-06-05T06:29:15.520Z,5.10
2017-06-05T06:31:43.937Z,4.80
2017-06-05T06:34:13.099Z,4.57
2017-06-05T06:36:41.503Z,4.33
2017-06-05T06:39:09.989Z,5.00
2017-06-05T06:41:38.536Z,4.37
2017-06-05T06:44:07.016Z,3.90
2017-06-05T06:46:35.432Z,4.30
2017-06-05T06:49:03.870Z,4.90
2017-06-05T06:51:32.289Z,13.23
2017-06-05T06:54:01.010Z,16.90
2017-06-05T06:56:29.470Z,9.10
2017-06-05T06:58:57.901Z,5.90
2017-06-05T07:01:26.560Z,5.17
2017-06-05T07:03:55.836Z,5.77
2017-06-05T07:06:23.914Z,14.40
2017-06-05T07:08:52.646Z,19.57
2017-06-05T07:11:21.086Z,21.57
2017-06-05T07:13:49.927Z,10.80
2017-06-05T07:16:18.521Z,8.57
2017-06-05T07:18:46.969Z,5.27
2017-06-05T07:21:16.832Z,3.50
2017-06-05T07:23:45.259Z,7.00
2017-06-05T07:26:13.692Z,5.07
2017-06-05T07:28:42.304Z,3.33
2017-06-05T07:31:11.550Z,12.50
2017-06-05T07:33:40.142Z,5.30
2017-06-05T07:36:08.911Z,4.40
2017-06-05T07:38:37.332Z,3.80
2017-06-05T07:41:06.004Z,4.03
2017-06-05T07:43:34.442Z,5.07
2017-06-05T07:46:02.940Z,3.67
2017-06-05T07:48:31.441Z,4.20
2017-06-05T07:51:00.068Z,3.60
2017-06-05T07:53:28.488Z,4.57
2017-06-05T07:55:56.935Z,5.10
2017-06-05T07:58:25.357Z,19.20
2017-06-05T08:00:53.772Z,8.70
2017-06-05T08:03:22.784Z,12.27
2017-06-05T08:05:51.209Z,11.00
2017-06-05T08:08:19.631Z,12.13
2017-06-05T08:10:48.117Z,5.77
2017-06-05T08:13:16.533Z,4.00
2017-06-05T08:15:47.158Z,4.47
2017-06-05T08:18:15.620Z,4.93
2017-06-05T08:20:44.034Z,3.50
2017-06-05T08:23:12.444Z,4.40
2017-06-05T08:25:41.654Z,4.47
2017-06-05T08:28:10.091Z,12.93
2017-06-05T08:30:38.503Z,10.60
2017-06-05T08:33:07.763Z,8.90
2017-06-05T08:35:46.414Z,8.33
2017-06-05T08:38:14.976Z,4.10
2017-06-05T08:40:46.676Z,2.80
2017-06-05T08:43:15.144Z,10.83
2017-06-05T08:45:45.144Z,4.00
2017-06-05T08:48:14.336Z,2.10
2017-06-05T08:50:43.562Z,2.67
2017-06-05T08:53:12.749Z,3.20
2017-06-05T08:55:41.953Z,3.87
2017-06-05T08:58:10.543Z,8.03
2017-06-05T09:00:39.111Z,3.93
2017-06-05T09:03:07.563Z,3.07
2017-06-05T09:05:35.998Z,5.37
2017-06-05T09:08:04.493Z,3.80
2017-06-05T09:10:32.929Z,5.90
2017-06-05T09:13:01.349Z,2.57
2017-06-05T09:15:29.793Z,2.83
2017-06-05T09:18:00.842Z,2.43
2017-06-05T09:20:29.065Z,13.27
2017-06-05T09:22:57.312Z,4.90
2017-06-05T09:25:25.768Z,4.90
2017-06-05T09:27:54.010Z,3.17
2017-06-05T09:30:22.442Z,2.03
2017-06-05T09:32:50.889Z,4.40
2017-06-05T09:35:19.312Z,3.50
2017-06-05T09:37:47.737Z,5.80
2017-06-05T09:40:16.961Z,2.73
2017-06-05T09:42:45.388Z,3.07
2017-06-05T09:45:13.980Z,12.87
2017-06-05T09:47:43.182Z,2.73
2017-06-05T09:50:11.597Z,5.37
2017-06-05T09:52:40.125Z,2.93
2017-06-05T09:55:08.531Z,3.13
2017-06-05T09:57:37.709Z,3.17
2017-06-05T10:00:06.133Z,2.43
2017-06-05T10:02:36.020Z,4.97
2017-06-05T10:05:05.216Z,2.20
2017-06-05T10:07:34.384Z,3.00
2017-06-05T10:10:02.828Z,1.90
2017-06-05T10:12:31.601Z,2.40
2017-06-05T10:15:00.041Z,5.07
2017-06-05T10:17:29.813Z,2.10
2017-06-05T10:19:58.252Z,3.00
2017-06-05T10:22:26.737Z,2.20
2017-06-05T10:24:55.176Z,1.60
2017-06-05T10:27:23.591Z,1.57
2017-06-05T10:29:52.007Z,1.73
2017-06-05T10:32:20.453Z,1.57
2017-06-05T10:34:49.449Z,1.98
2017-06-05T10:37:17.888Z,1.80
2017-06-05T10:39:46.317Z,1.40
2017-06-05T10:42:14.730Z,1.43
2017-06-05T10:44:43.146Z,1.90
2017-06-05T10:47:12.342Z,1.40
2017-06-05T10:49:41.530Z,1.50
2017-06-05T10:52:10.726Z,6.17
2017-06-05T10:54:39.157Z,5.93
2017-06-05T10:57:07.577Z,1.30
2017-06-05T10:59:36.113Z,1.97
2017-06-05T11:02:04.542Z,2.00
2017-06-05T11:04:32.968Z,1.60
2017-06-05T11:07:01.374Z,1.07
2017-06-05T11:09:29.798Z,1.10
2017-06-05T11:11:58.983Z,1.40
2017-06-05T11:14:28.161Z,1.33
2017-06-05T11:16:56.596Z,1.57
2017-06-05T11:19:25.060Z,1.50
2017-06-05T11:21:53.491Z,1.53
2017-06-05T11:24:21.914Z,1.17
2017-06-05T11:26:50.353Z,1.30
2017-06-05T11:29:18.764Z,1.33
2017-06-05T11:31:47.453Z,1.10
2017-06-05T11:34:15.890Z,0.97
2017-06-05T11:36:44.300Z,1.40
2017-06-05T11:39:13.516Z,1.50
2017-06-05T11:41:42.002Z,1.47
2017-06-05T11:44:10.419Z,1.20
2017-06-05T11:46:38.856Z,1.30
2017-06-05T11:49:07.331Z,1.10
2017-06-05T11:51:35.745Z,1.67
2017-06-05T11:54:04.175Z,0.80
2017-06-05T11:56:33.365Z,0.70
2017-06-05T11:59:02.558Z,1.20
2017-06-05T12:01:31.794Z,1.00
2017-06-05T12:04:00.241Z,2.97
2017-06-05T12:06:29.453Z,1.30
2017-06-05T12:08:57.889Z,1.90
2017-06-05T12:11:26.296Z,0.87
2017-06-05T12:13:55.484Z,0.90
2017-06-05T12:16:24.692Z,1.00
2017-06-05T12:18:53.877Z,1.50
2017-06-05T12:21:22.391Z,1.00
2017-06-05T12:23:50.867Z,1.20
2017-06-05T12:26:19.287Z,0.80
2017-06-05T12:28:47.684Z,0.93
2017-06-05T12:31:16.193Z,0.87
2017-06-05T12:33:44.619Z,0.80
2017-06-05T12:36:13.028Z,0.80
2017-06-05T12:38:41.466Z,0.73
2017-06-05T12:41:09.877Z,1.20
2017-06-05T12:43:38.397Z,0.83
2017-06-05T12:46:06.873Z,1.23
2017-06-05T12:48:35.293Z,1.10
2017-06-05T12:51:03.726Z,0.90
2017-06-05T12:53:33.020Z,1.10
2017-06-05T12:56:02.216Z,13.60
2017-06-05T12:58:31.388Z,2.30
2017-06-05T13:00:59.831Z,14.13
2017-06-05T13:03:28.243Z,3.00
2017-06-05T13:05:56.657Z,1.83
2017-06-05T13:08:25.125Z,4.50
2017-06-05T13:10:54.320Z,2.10
2017-06-05T13:13:23.500Z,2.87
2017-06-05T13:15:51.940Z,2.53
2017-06-05T13:18:20.364Z,3.03
2017-06-05T13:20:48.798Z,1.97
2017-06-05T13:23:17.233Z,4.30
2017-06-05T13:25:46.065Z,2.80
2017-06-05T13:28:14.492Z,1.73
2017-06-05T13:30:42.914Z,2.30
2017-06-05T13:33:11.368Z,3.20
2017-06-05T13:35:40.470Z,2.10
2017-06-05T13:38:08.945Z,5.17
2017-06-05T13:40:37.359Z,3.30
2017-06-05T13:43:05.773Z,1.37
2017-06-05T13:45:34.285Z,2.40
2017-06-05T13:48:02.710Z,1.13
2017-06-05T13:50:31.115Z,1.60
2017-06-05T13:52:59.548Z,2.30
2017-06-05T13:55:27.959Z,1.30
2017-06-05T13:57:56.369Z,1.67
2017-06-05T14:00:25.577Z,2.00
2017-06-05T14:02:53.985Z,1.10
2017-06-05T14:05:22.421Z,1.17
2017-06-05T14:07:51.656Z,1.20
2017-06-05T14:10:20.064Z,3.30
2017-06-05T14:12:48.500Z,2.40
2017-06-05T14:15:16.961Z,1.07
2017-06-05T14:17:46.137Z,4.10
2017-06-05T14:20:14.577Z,3.93
2017-06-05T14:22:43.046Z,5.20
2017-06-05T14:25:11.496Z,2.90
2017-06-05T14:27:39.912Z,3.47
2017-06-05T14:30:08.381Z,2.20
2017-06-05T14:32:36.808Z,1.83
2017-06-05T14:35:05.342Z,1.70
2017-06-05T14:37:33.783Z,2.30
2017-06-05T14:40:02.965Z,2.40
2017-06-05T14:42:31.507Z,0.70
2017-06-05T14:44:59.948Z,1.50
2017-06-05T14:47:29.132Z,0.93
2017-06-05T14:49:57.560Z,1.30
2017-06-05T14:52:25.997Z,1.50
2017-06-05T14:54:55.181Z,1.77
2017-06-05T14:57:23.595Z,1.27
2017-06-05T14:59:52.021Z,1.37
2017-06-05T15:02:20.473Z,3.47
2017-06-05T15:04:48.896Z,2.17
2017-06-05T15:07:17.332Z,1.30
2017-06-05T15:09:45.750Z,5.27
2017-06-05T15:12:14.171Z,1.60
2017-06-05T15:14:42.597Z,1.80
2017-06-05T15:17:11.022Z,0.90
2017-06-05T15:19:39.449Z,4.80
2017-06-05T15:22:07.984Z,7.37
2017-06-05T15:24:36.459Z,2.90
2017-06-05T15:27:04.932Z,7.10
2017-06-05T15:29:33.383Z,5.77
2017-06-05T15:32:01.799Z,7.30
2017-06-05T15:34:30.246Z,6.97
2017-06-05T15:36:58.756Z,3.43
2017-06-05T15:39:27.168Z,4.57
2017-06-05T15:41:55.643Z,0.80
2017-06-05T15:44:24.107Z,0.80
2017-06-05T15:46:52.592Z,1.23
2017-06-05T15:49:21.006Z,0.87
2017-06-05T15:51:49.563Z,1.17
2017-06-05T15:54:18.000Z,5.23
2017-06-05T15:56:47.216Z,1.93
2017-06-05T15:59:15.660Z,1.20
2017-06-05T16:01:44.069Z,5.00
2017-06-05T16:04:12.657Z,4.30
2017-06-05T16:06:41.849Z,4.60
2017-06-05T16:09:10.077Z,5.70
2017-06-05T16:11:38.497Z,7.40
2017-06-05T16:14:07.705Z,5.50
2017-06-05T16:16:36.141Z,7.20
2017-06-05T16:19:04.564Z,10.30
2017-06-05T16:21:33.002Z,7.00
2017-06-05T16:24:01.529Z,2.00
2017-06-05T16:26:29.954Z,1.13
2017-06-05T16:28:58.388Z,7.27
2017-06-05T16:31:26.788Z,10.07
2017-06-05T16:33:55.218Z,4.63
2017-06-05T16:36:24.407Z,3.60
2017-06-05T16:38:53.609Z,13.20
2017-06-05T16:41:22.784Z,7.90
2017-06-05T16:43:51.313Z,7.83
2017-06-05T16:46:21.350Z,4.00
2017-06-05T16:48:49.764Z,5.10
2017-06-05T16:51:18.309Z,4.50
2017-06-05T16:53:46.721Z,3.60
2017-06-05T16:56:15.130Z,6.63
2017-06-05T16:58:44.323Z,3.30
2017-06-05T17:01:13.523Z,1.10
2017-06-05T17:03:42.716Z,0.90
2017-06-05T17:06:11.933Z,2.10
2017-06-05T17:08:40.348Z,1.00
2017-06-05T17:11:08.769Z,1.20
2017-06-05T17:13:37.980Z,1.23
2017-06-05T17:16:06.392Z,2.30
2017-06-05T17:18:34.822Z,2.60
2017-06-05T17:21:04.026Z,1.27
2017-06-05T17:23:33.224Z,3.40
2017-06-05T17:26:02.066Z,2.93
2017-06-05T17:28:30.523Z,2.10
2017-06-05T17:30:58.929Z,1.20
2017-06-05T17:33:27.340Z,1.63
2017-06-05T17:35:56.544Z,1.10
2017-06-05T17:38:25.740Z,1.73
2017-06-05T17:40:54.924Z,1.03
2017-06-05T17:43:23.359Z,1.00
2017-06-05T17:45:51.765Z,0.80
2017-06-05T17:48:20.181Z,0.80
2017-06-05T17:50:48.621Z,1.33
2017-06-05T17:53:17.044Z,1.87
2017-06-05T17:55:45.476Z,1.80
2017-06-05T17:58:13.916Z,1.23
2017-06-05T18:00:42.333Z,1.57
2017-06-05T18:03:10.755Z,1.60
2017-06-05T18:05:39.244Z,1.50
2017-06-05T18:08:07.744Z,1.67
2017-06-05T18:10:36.140Z,2.83
2017-06-05T18:13:04.590Z,2.03
2017-06-05T18:15:33.012Z,1.67
2017-06-05T18:18:01.452Z,1.20
2017-06-05T18:20:29.902Z,1.90
2017-06-05T18:22:59.159Z,14.70
2017-06-05T18:25:27.565Z,6.77
2017-06-05T18:27:56.080Z,6.73
2017-06-05T18:30:24.502Z,1.60
2017-06-05T18:32:52.937Z,1.30
2017-06-05T18:35:21.469Z,1.37
2017-06-05T18:37:49.888Z,2.10
2017-06-05T18:40:19.083Z,2.43
2017-06-05T18:42:48.321Z,1.63
2017-06-05T18:45:16.748Z,1.70
2017-06-05T18:47:45.972Z,1.50
2017-06-05T18:50:14.432Z,2.10
2017-06-05T18:52:43.640Z,2.23
2017-06-05T18:55:12.064Z,2.47
2017-06-05T18:57:40.529Z,1.60
2017-06-05T19:00:08.961Z,1.97
2017-06-05T19:02:38.161Z,1.70
2017-06-05T19:05:07.484Z,2.00
2017-06-05T19:07:35.942Z,1.47
2017-06-05T19:10:05.181Z,1.50
2017-06-05T19:12:33.649Z,1.73
2017-06-05T19:15:02.077Z,1.77
2017-06-05T19:17:30.494Z,1.90
2017-06-05T19:19:58.937Z,1.97
2017-06-05T19:22:27.347Z,2.07
2017-06-05T19:24:55.763Z,1.80
2017-06-05T19:27:24.218Z,3.00
2017-06-05T19:29:52.664Z,9.00
2017-06-05T19:32:21.860Z,2.23
2017-06-05T19:34:50.366Z,1.80
2017-06-05T19:37:18.783Z,1.80
2017-06-05T19:39:47.229Z,1.97
2017-06-05T19:42:15.666Z,2.30
2017-06-05T19:44:44.176Z,2.00
2017-06-05T19:47:13.372Z,1.90
2017-06-05T19:49:41.828Z,2.03
2017-06-05T19:52:10.268Z,2.40
2017-06-05T19:54:39.529Z,2.03
2017-06-05T19:57:08.776Z,2.20
2017-06-05T19:59:37.785Z,1.93
2017-06-05T20:02:07.171Z,2.70
2017-06-05T20:04:36.581Z,2.17
2017-06-05T20:07:04.997Z,2.00
2017-06-05T20:09:33.868Z,2.80
2017-06-05T20:12:02.336Z,2.43
2017-06-05T20:14:30.786Z,2.57
2017-06-05T20:16:59.218Z,2.20
2017-06-05T20:19:28.517Z,2.40
2017-06-05T20:21:57.802Z,3.10
2017-06-05T20:24:26.221Z,4.17
2017-06-05T20:26:54.694Z,3.03
2017-06-05T20:29:23.146Z,3.20
2017-06-05T20:31:51.547Z,2.63
2017-06-05T20:34:19.982Z,2.50
2017-06-05T20:36:48.413Z,3.50
2017-06-05T20:39:16.887Z,6.13
2017-06-05T20:41:45.348Z,5.40
2017-06-05T20:44:14.537Z,6.30
2017-06-05T20:46:42.969Z,3.40
2017-06-05T20:49:11.435Z,2.47
2017-06-05T20:51:39.866Z,2.67
2017-06-05T20:54:08.291Z,2.40
2017-06-05T20:56:36.762Z,2.20
2017-06-05T20:59:05.185Z,3.00
2017-06-05T21:01:33.597Z,2.10
2017-06-05T21:04:02.807Z,2.17
2017-06-05T21:06:32.002Z,2.40
2017-06-05T21:09:01.208Z,2.77
2017-06-05T21:11:29.811Z,2.00
2017-06-05T21:13:58.267Z,2.43
2017-06-05T21:16:28.298Z,2.70
2017-06-05T21:18:56.847Z,2.93
2017-06-05T21:21:25.395Z,2.93
2017-06-05T21:23:53.821Z,3.00
2017-06-05T21:26:23.029Z,3.30
2017-06-05T21:28:51.477Z,3.20
2017-06-05T21:31:20.591Z,3.23
2017-06-05T21:33:49.841Z,2.87
2017-06-05T21:36:18.269Z,2.23
2017-06-05T21:38:47.461Z,2.87
2017-06-05T21:41:16.673Z,3.00
2017-06-05T21:43:45.105Z,3.17
2017-06-05T21:46:13.512Z,2.73
2017-06-05T21:48:42.718Z,3.20
2017-06-05T21:51:11.116Z,2.77
2017-06-05T21:53:39.536Z,3.17
2017-06-05T21:56:08.805Z,3.40
2017-06-05T21:58:37.245Z,2.73
2017-06-05T22:01:05.664Z,2.77
2017-06-05T22:03:34.104Z,3.27
2017-06-05T22:06:03.300Z,2.80
2017-06-05T22:08:32.504Z,2.93
2017-06-05T22:11:01.772Z,3.00
2017-06-05T22:13:30.251Z,3.10
2017-06-05T22:15:58.681Z,2.90
2017-06-05T22:18:27.359Z,3.20
2017-06-05T22:20:55.805Z,3.70
2017-06-05T22:23:24.268Z,3.50
2017-06-05T22:25:52.718Z,3.50
2017-06-05T22:28:21.185Z,3.90
2017-06-05T22:30:49.792Z,3.60
2017-06-05T22:33:18.244Z,3.60
2017-06-05T22:35:46.659Z,3.80
2017-06-05T22:38:15.069Z,3.73
2017-06-05T22:40:44.283Z,3.00
2017-06-05T22:43:13.464Z,3.77
2017-06-05T22:45:42.680Z,3.23
2017-06-05T22:48:11.124Z,2.93
2017-06-05T22:50:39.552Z,3.30
2017-06-05T22:53:08.005Z,3.60
2017-06-05T22:55:37.210Z,3.53
2017-06-05T22:58:06.435Z,3.70
2017-06-05T23:00:34.868Z,3.47
2017-06-05T23:03:03.284Z,3.47
2017-06-05T23:05:31.752Z,3.90
2017-06-05T23:08:00.169Z,3.90
2017-06-05T23:10:28.707Z,3.63
2017-06-05T23:12:57.883Z,3.97
2017-06-05T23:15:26.310Z,4.23
2017-06-05T23:17:54.745Z,4.13
2017-06-05T23:20:23.921Z,4.17
2017-06-05T23:22:52.344Z,4.93
2017-06-05T23:25:20.821Z,4.43
2017-06-05T23:27:50.866Z,4.30
2017-06-05T23:30:19.273Z,4.00
2017-06-05T23:32:47.825Z,3.57
2017-06-05T23:35:16.303Z,3.63
2017-06-05T23:37:44.732Z,4.17
2017-06-05T23:40:13.241Z,3.60
2017-06-05T23:42:41.724Z,3.43
2017-06-05T23:45:10.160Z,3.80
2017-06-05T23:47:38.612Z,3.50
2017-06-05T23:50:07.021Z,3.70
2017-06-05T23:52:35.449Z,3.80
2017-06-05T23:55:03.913Z,4.00
2017-06-05T23:57:33.105Z,4.13
